createdAt,value
2019-05-19T00:01:53.019Z,55.97
2019-05-19T00:04:18.900Z,61.00
2019-05-19T00:06:44.763Z,62.80
2019-05-19T00:09:10.622Z,59.33
2019-05-19T00:11:36.513Z,56.80
2019-05-19T00:14:02.367Z,59.67
2019-05-19T00:16:28.230Z,58.97
2019-05-19T00:18:54.099Z,64.67
2019-05-19T00:21:19.967Z,58.77
2019-05-19T00:23:45.827Z,58.73
2019-05-19T00:26:11.705Z,61.87
2019-05-19T00:28:37.574Z,58.23
2019-05-19T00:31:04.248Z,63.97
2019-05-19T00:33:30.120Z,66.17
2019-05-19T00:35:55.984Z,62.10
2019-05-19T00:38:21.861Z,66.33
2019-05-19T00:40:47.740Z,66.47
2019-05-19T00:43:13.615Z,67.77
2019-05-19T00:45:39.480Z,62.37
2019-05-19T00:48:05.353Z,60.40
2019-05-19T00:50:31.307Z,62.37
2019-05-19T00:52:57.152Z,62.80
2019-05-19T00:55:23.036Z,66.53
2019-05-19T00:57:49.701Z,68.87
2019-05-19T01:00:15.962Z,63.33
2019-05-19T01:02:41.845Z,66.63
2019-05-19T01:05:08.211Z,65.53
2019-05-19T01:07:34.564Z,67.07
2019-05-19T01:10:00.480Z,64.53
2019-05-19T01:12:26.333Z,63.87
2019-05-19T01:14:52.188Z,70.17
2019-05-19T01:17:18.070Z,64.70
2019-05-19T01:19:55.167Z,70.10
2019-05-19T01:22:11.685Z,63.80
2019-05-19T01:24:37.567Z,63.80
2019-05-19T01:27:03.427Z,61.80
2019-05-19T01:29:29.292Z,64.50
2019-05-19T01:31:55.170Z,71.30
2019-05-19T01:34:21.021Z,69.33
2019-05-19T01:36:46.895Z,69.77
2019-05-19T01:39:12.762Z,70.20
2019-05-19T01:41:38.634Z,72.13
2019-05-19T01:44:04.498Z,77.47
2019-05-19T01:46:30.371Z,80.73
2019-05-19T01:48:56.265Z,76.37
2019-05-19T01:51:22.231Z,76.03
2019-05-19T01:53:48.167Z,72.37
2019-05-19T01:56:14.080Z,69.60
2019-05-19T01:58:39.959Z,73.70
2019-05-19T02:01:05.820Z,71.97
2019-05-19T02:03:31.679Z,65.10
2019-05-19T02:05:57.554Z,74.33
2019-05-19T02:08:23.414Z,71.93
2019-05-19T02:10:49.276Z,76.13
2019-05-19T02:13:15.134Z,77.03
2019-05-19T02:15:41.299Z,82.47
2019-05-19T02:18:07.185Z,82.83
2019-05-19T02:20:33.993Z,90.63
2019-05-19T02:23:00.119Z,85.87
2019-05-19T02:25:25.987Z,86.37
2019-05-19T02:27:51.940Z,92.20
2019-05-19T02:30:18.316Z,90.57
2019-05-19T02:32:44.189Z,94.40
2019-05-19T02:35:10.482Z,89.77
2019-05-19T02:37:36.334Z,89.20
2019-05-19T02:40:04.704Z,86.63
2019-05-19T02:42:33.179Z,93.37
2019-05-19T02:45:01.243Z,93.37
2019-05-19T02:47:28.715Z,96.73
2019-05-19T02:49:56.652Z,95.70
2019-05-19T02:52:25.852Z,99.07
2019-05-19T02:54:53.627Z,96.77
2019-05-19T02:57:19.716Z,97.43
2019-05-19T02:59:45.880Z,97.70
2019-05-19T03:02:13.749Z,88.97
2019-05-19T03:04:39.604Z,95.80
2019-05-19T03:07:05.466Z,99.90
2019-05-19T03:09:31.330Z,101.90
2019-05-19T03:11:57.239Z,95.20
2019-05-19T03:14:23.295Z,101.60
2019-05-19T03:16:49.152Z,101.20
2019-05-19T03:19:15.016Z,95.10
2019-05-19T03:21:40.905Z,101.53
2019-05-19T03:24:06.754Z,101.90
2019-05-19T03:26:32.627Z,100.43
2019-05-19T03:28:58.491Z,108.90
2019-05-19T03:31:26.275Z,99.97
2019-05-19T03:33:54.121Z,99.47
2019-05-19T03:36:19.986Z,97.97
2019-05-19T03:38:45.858Z,102.53
2019-05-19T03:41:11.796Z,97.67
2019-05-19T03:43:37.693Z,103.10
2019-05-19T03:46:03.542Z,99.70
2019-05-19T03:48:31.449Z,103.27
2019-05-19T03:50:57.308Z,103.83
2019-05-19T03:53:23.172Z,95.57
2019-05-19T03:55:49.064Z,105.00
2019-05-19T03:58:14.895Z,104.97
2019-05-19T04:00:40.756Z,102.00
2019-05-19T04:03:06.629Z,96.83
2019-05-19T04:05:32.480Z,94.37
2019-05-19T04:07:58.338Z,100.23
2019-05-19T04:10:24.211Z,105.23
2019-05-19T04:12:50.080Z,101.20
2019-05-19T04:15:16.149Z,101.60
2019-05-19T04:17:42.006Z,98.53
2019-05-19T04:20:08.049Z,102.20
2019-05-19T04:22:33.911Z,99.83
2019-05-19T04:24:59.774Z,101.53
2019-05-19T04:27:25.628Z,99.67
2019-05-19T04:29:51.576Z,104.10
2019-05-19T04:32:17.465Z,99.93
2019-05-19T04:34:44.201Z,105.37
2019-05-19T04:37:10.073Z,103.17
2019-05-19T04:39:35.920Z,108.00
2019-05-19T04:42:01.778Z,98.33
2019-05-19T04:44:27.665Z,105.00
2019-05-19T04:46:53.536Z,107.20
2019-05-19T04:49:19.389Z,96.30
2019-05-19T04:51:45.253Z,104.80
2019-05-19T04:54:11.109Z,103.73
2019-05-19T04:56:36.969Z,102.77
2019-05-19T04:59:03.060Z,110.30
2019-05-19T05:01:28.930Z,99.60
2019-05-19T05:03:54.787Z,110.53
2019-05-19T05:06:20.698Z,96.00
2019-05-19T05:08:46.532Z,105.37
2019-05-19T05:11:12.394Z,103.10
2019-05-19T05:13:38.306Z,102.90
2019-05-19T05:16:04.181Z,108.33
2019-05-19T05:18:30.053Z,102.27
2019-05-19T05:20:55.962Z,104.77
2019-05-19T05:23:21.797Z,111.93
2019-05-19T05:25:47.658Z,102.13
2019-05-19T05:28:13.520Z,107.70
2019-05-19T05:30:39.421Z,114.23
2019-05-19T05:33:05.278Z,99.97
2019-05-19T05:35:31.174Z,99.27
2019-05-19T05:37:57.186Z,100.83
2019-05-19T05:40:23.034Z,106.20
2019-05-19T05:42:49.106Z,99.27
2019-05-19T05:45:15.381Z,104.03
2019-05-19T05:47:41.245Z,103.37
2019-05-19T05:50:08.424Z,99.63
2019-05-19T05:52:38.496Z,98.93
2019-05-19T05:55:03.380Z,102.80
2019-05-19T05:57:29.250Z,100.80
2019-05-19T05:59:55.120Z,89.10
2019-05-19T06:02:21.009Z,99.57
2019-05-19T06:04:46.915Z,91.97
2019-05-19T06:07:12.723Z,97.80
2019-05-19T06:09:38.862Z,98.17
2019-05-19T06:12:04.670Z,93.53
2019-05-19T06:14:30.540Z,88.70
2019-05-19T06:16:56.408Z,97.13
2019-05-19T06:19:22.263Z,97.13
2019-05-19T06:21:48.335Z,94.93
2019-05-19T06:24:14.193Z,94.07
2019-05-19T06:26:40.054Z,94.80
2019-05-19T06:29:05.933Z,101.53
2019-05-19T06:31:31.792Z,94.83
2019-05-19T06:33:57.702Z,95.80
2019-05-19T06:36:23.608Z,93.97
2019-05-19T06:38:50.377Z,95.80
2019-05-19T06:41:16.214Z,92.60
2019-05-19T06:43:42.078Z,87.63
2019-05-19T06:46:07.940Z,93.17
2019-05-19T06:48:33.799Z,86.87
2019-05-19T06:50:59.657Z,97.37
2019-05-19T06:53:25.542Z,95.97
2019-05-19T06:55:51.399Z,87.70
2019-05-19T06:58:17.326Z,90.10
2019-05-19T07:00:43.238Z,100.37
2019-05-19T07:03:09.087Z,94.83
2019-05-19T07:05:35.002Z,89.90
2019-05-19T07:08:00.897Z,86.33
2019-05-19T07:10:26.758Z,84.50
2019-05-19T07:12:52.624Z,82.83
2019-05-19T07:15:18.603Z,84.70
2019-05-19T07:17:44.509Z,87.73
2019-05-19T07:20:10.876Z,86.13
2019-05-19T07:22:37.581Z,80.73
2019-05-19T07:25:05.430Z,85.67
2019-05-19T07:27:31.309Z,86.90
2019-05-19T07:29:57.182Z,80.10
2019-05-19T07:32:23.030Z,92.30
2019-05-19T07:34:48.889Z,84.80
2019-05-19T07:37:14.752Z,82.33
2019-05-19T07:39:41.451Z,87.13
2019-05-19T07:42:07.316Z,87.97
2019-05-19T07:44:33.180Z,92.97
2019-05-19T07:46:59.040Z,82.93
2019-05-19T07:49:24.910Z,85.00
2019-05-19T07:51:50.769Z,82.03
2019-05-19T07:54:16.689Z,86.47
2019-05-19T07:56:42.551Z,75.73
2019-05-19T07:59:08.440Z,83.10
2019-05-19T08:01:34.308Z,79.90
2019-05-19T08:04:00.176Z,85.03
2019-05-19T08:06:26.060Z,84.00
2019-05-19T08:08:51.908Z,71.02
2019-05-19T08:11:17.755Z,72.43
2019-05-19T08:13:43.606Z,75.07
2019-05-19T08:16:09.518Z,72.47
2019-05-19T08:18:35.374Z,71.10
2019-05-19T08:21:01.238Z,74.07
2019-05-19T08:23:27.104Z,71.10
2019-05-19T08:25:52.961Z,68.05
2019-05-19T08:28:18.823Z,70.92
2019-05-19T08:30:44.682Z,69.27
2019-05-19T08:33:10.543Z,72.65
2019-05-19T08:35:36.406Z,69.35
2019-05-19T08:38:02.342Z,69.85
2019-05-19T08:40:28.231Z,72.97
2019-05-19T08:42:54.096Z,66.40
2019-05-19T08:45:19.959Z,67.50
2019-05-19T08:47:45.812Z,62.13
2019-05-19T08:50:12.016Z,63.85
2019-05-19T08:52:37.910Z,62.08
2019-05-19T08:55:04.458Z,59.30
2019-05-19T08:57:30.321Z,58.28
2019-05-19T08:59:56.244Z,58.58
2019-05-19T09:02:22.098Z,57.58
2019-05-19T09:04:47.950Z,57.13
2019-05-19T09:07:13.853Z,57.45
2019-05-19T09:09:39.704Z,55.52
2019-05-19T09:12:05.568Z,54.58
2019-05-19T09:14:31.475Z,53.08
2019-05-19T09:16:57.387Z,53.90
2019-05-19T09:19:23.241Z,53.78
2019-05-19T09:21:49.117Z,50.50
2019-05-19T09:24:29.662Z,48.92
2019-05-19T09:26:42.931Z,58.40
2019-05-19T09:29:08.792Z,55.78
2019-05-19T09:31:34.693Z,52.00
2019-05-19T09:34:00.529Z,52.60
2019-05-19T09:36:26.430Z,52.88
2019-05-19T09:38:52.278Z,48.80
2019-05-19T09:41:18.166Z,51.90
2019-05-19T09:43:44.130Z,52.53
2019-05-19T09:46:09.987Z,47.73
2019-05-19T09:48:35.841Z,55.98
2019-05-19T09:51:01.707Z,48.48
2019-05-19T09:53:27.560Z,47.93
2019-05-19T09:55:53.449Z,47.05
2019-05-19T09:58:20.175Z,45.43
2019-05-19T10:00:46.296Z,48.68
2019-05-19T10:03:12.158Z,45.52
2019-05-19T10:05:38.025Z,46.75
2019-05-19T10:08:03.887Z,50.20
2019-05-19T10:10:53.391Z,47.48
2019-05-19T10:13:19.238Z,48.48
2019-05-19T10:15:45.127Z,46.20
2019-05-19T10:18:10.983Z,44.67
2019-05-19T10:20:36.855Z,44.23
2019-05-19T10:23:02.858Z,42.53
2019-05-19T10:25:28.811Z,45.65
2019-05-19T10:27:54.706Z,43.65
2019-05-19T10:30:20.815Z,46.08
2019-05-19T10:32:46.672Z,48.40
2019-05-19T10:35:12.761Z,51.90
2019-05-19T10:37:38.639Z,46.83
2019-05-19T10:40:05.119Z,43.75
2019-05-19T10:42:30.993Z,46.68
2019-05-19T10:44:56.869Z,47.80
2019-05-19T10:47:22.731Z,51.83
2019-05-19T10:49:48.593Z,46.68
2019-05-19T10:52:14.584Z,50.03
2019-05-19T10:54:40.512Z,52.65
2019-05-19T10:57:06.388Z,49.15
2019-05-19T10:59:32.319Z,47.20
2019-05-19T11:01:58.161Z,46.77
2019-05-19T11:04:24.021Z,45.23
2019-05-19T11:06:49.875Z,48.58
2019-05-19T11:09:15.757Z,45.50
2019-05-19T11:11:41.593Z,45.50
2019-05-19T11:14:07.494Z,45.28
2019-05-19T11:16:33.372Z,45.78
2019-05-19T11:18:59.349Z,45.80
2019-05-19T11:21:25.305Z,46.60
2019-05-19T11:23:51.154Z,47.55
2019-05-19T11:26:17.013Z,42.85
2019-05-19T11:28:42.928Z,40.33
2019-05-19T11:31:08.828Z,42.93
2019-05-19T11:33:34.711Z,42.55
2019-05-19T11:36:00.601Z,41.90
2019-05-19T11:38:26.498Z,42.65
2019-05-19T11:40:52.372Z,39.92
2019-05-19T11:43:18.270Z,44.42
2019-05-19T11:45:44.147Z,39.58
2019-05-19T11:48:10.021Z,42.73
2019-05-19T11:50:35.903Z,39.78
2019-05-19T11:53:01.833Z,42.40
2019-05-19T11:55:27.696Z,44.58
2019-05-19T11:57:53.592Z,46.92
2019-05-19T12:21:53.875Z,41.70
2019-05-19T12:24:19.731Z,43.48
2019-05-19T12:26:45.590Z,49.73
2019-05-19T12:29:11.470Z,47.93
2019-05-19T12:31:37.556Z,45.80
2019-05-19T12:34:03.646Z,45.30
2019-05-19T12:36:29.513Z,48.90
2019-05-19T12:38:55.426Z,46.73
2019-05-19T12:41:21.379Z,49.00
2019-05-19T12:43:47.289Z,48.42
2019-05-19T12:46:16.511Z,44.20
2019-05-19T12:48:41.084Z,46.08
2019-05-19T12:51:07.457Z,43.23
2019-05-19T12:53:33.512Z,42.30
2019-05-19T12:55:59.381Z,41.70
2019-05-19T12:58:25.272Z,46.88
2019-05-19T13:00:53.153Z,39.80
2019-05-19T13:03:19.026Z,44.42
2019-05-19T13:05:44.906Z,43.63
2019-05-19T13:08:11.703Z,41.20
2019-05-19T13:10:37.714Z,43.10
2019-05-19T13:13:03.615Z,43.17
2019-05-19T13:15:29.498Z,40.35
2019-05-19T13:17:55.361Z,40.83
2019-05-19T13:20:24.114Z,40.65
2019-05-19T13:22:50.270Z,37.98
2019-05-19T13:25:16.167Z,42.35
2019-05-19T13:27:42.047Z,45.60
2019-05-19T13:30:08.014Z,38.15
2019-05-19T13:32:33.971Z,36.45
2019-05-19T13:34:59.913Z,34.75
2019-05-19T13:37:25.872Z,35.83
2019-05-19T13:39:51.805Z,33.28
2019-05-19T13:42:17.693Z,32.75
2019-05-19T13:44:43.590Z,33.98
2019-05-19T13:47:09.465Z,31.35
2019-05-19T13:49:35.424Z,31.02
2019-05-19T13:52:01.361Z,28.83
2019-05-19T13:54:27.241Z,32.80
2019-05-19T13:56:53.146Z,28.27
2019-05-19T13:59:19.005Z,31.62
2019-05-19T14:01:44.894Z,32.67
2019-05-19T14:04:10.803Z,31.37
2019-05-19T14:06:36.668Z,27.40
2019-05-19T14:09:04.380Z,33.38
2019-05-19T14:11:30.264Z,35.30
2019-05-19T14:13:56.133Z,28.90
2019-05-19T14:16:22.057Z,32.55
2019-05-19T14:18:47.915Z,33.33
2019-05-19T14:21:13.766Z,43.17
2019-05-19T14:23:39.623Z,37.95
2019-05-19T14:26:05.474Z,34.55
2019-05-19T14:28:31.409Z,38.40
2019-05-19T14:30:57.253Z,33.58
2019-05-19T14:33:23.102Z,33.78
2019-05-19T14:35:49.008Z,36.68
2019-05-19T14:38:14.859Z,43.35
2019-05-19T14:40:42.208Z,41.75
2019-05-19T14:43:08.238Z,34.03
2019-05-19T14:45:34.113Z,44.30
2019-05-19T14:48:00.089Z,35.80
2019-05-19T14:50:26.037Z,32.75
2019-05-19T14:52:51.914Z,34.10
2019-05-19T14:55:17.888Z,33.08
2019-05-19T14:57:45.438Z,40.43
2019-05-19T15:00:13.811Z,35.28
2019-05-19T15:02:39.646Z,39.73
2019-05-19T15:05:06.016Z,39.60
2019-05-19T15:07:31.903Z,41.55
2019-05-19T15:09:57.745Z,43.10
2019-05-19T15:12:23.612Z,41.40
2019-05-19T15:14:49.472Z,43.40
2019-05-19T15:17:15.336Z,47.75
2019-05-19T15:19:41.221Z,44.10
2019-05-19T15:22:07.078Z,45.90
2019-05-19T15:24:32.939Z,45.28
2019-05-19T15:26:58.794Z,46.05
2019-05-19T15:29:24.650Z,44.90
2019-05-19T15:31:50.513Z,50.98
2019-05-19T15:34:16.368Z,50.10
2019-05-19T15:36:42.237Z,44.83
2019-05-19T15:39:08.104Z,46.50
2019-05-19T15:41:34.010Z,47.45
2019-05-19T15:43:59.886Z,46.00
2019-05-19T15:46:26.591Z,45.08
2019-05-19T15:48:52.455Z,36.60
2019-05-19T15:51:28.064Z,28.20
2019-05-19T15:53:46.071Z,26.60
2019-05-19T15:56:11.967Z,32.42
2019-05-19T15:58:37.817Z,30.30
2019-05-19T16:01:03.715Z,37.13
2019-05-19T16:03:29.554Z,41.28
2019-05-19T16:05:55.440Z,37.85
2019-05-19T16:08:21.302Z,22.67
2019-05-19T16:10:47.205Z,19.82
2019-05-19T16:13:13.053Z,20.65
2019-05-19T16:15:38.974Z,16.23
2019-05-19T16:18:04.795Z,15.45
2019-05-19T16:20:30.648Z,14.80
2019-05-19T16:22:56.518Z,16.42
2019-05-19T16:25:22.369Z,13.62
2019-05-19T16:27:48.222Z,16.77
2019-05-19T16:30:14.444Z,23.12
2019-05-19T16:32:40.329Z,23.22
2019-05-19T16:35:06.692Z,20.55
2019-05-19T16:37:32.748Z,19.50
2019-05-19T16:39:58.741Z,20.72
2019-05-19T16:42:24.599Z,31.60
2019-05-19T16:44:50.459Z,35.43
2019-05-19T16:47:16.301Z,38.35
2019-05-19T16:49:42.165Z,47.53
2019-05-19T16:52:08.329Z,46.95
2019-05-19T16:54:36.090Z,53.48
2019-05-19T16:57:01.954Z,52.30
2019-05-19T16:59:27.831Z,56.63
2019-05-19T17:01:53.686Z,62.33
2019-05-19T17:04:19.593Z,65.95
2019-05-19T17:06:45.439Z,65.92
2019-05-19T17:09:11.283Z,64.47
2019-05-19T17:11:37.150Z,65.28
2019-05-19T17:14:03.116Z,59.48
2019-05-19T17:16:29.027Z,61.45
2019-05-19T17:18:54.904Z,60.97
2019-05-19T17:21:20.762Z,69.15
2019-05-19T17:26:13.100Z,61.88
2019-05-19T17:28:39.009Z,69.35
2019-05-19T17:31:07.562Z,61.80
2019-05-19T17:33:32.625Z,56.33
2019-05-19T17:35:58.482Z,65.95
2019-05-19T17:38:24.353Z,57.53
2019-05-19T17:40:50.217Z,57.65
2019-05-19T17:43:16.082Z,59.93
2019-05-19T17:45:41.933Z,67.03
2019-05-19T17:48:10.298Z,67.97
2019-05-19T17:50:35.585Z,60.08
2019-05-19T17:53:01.738Z,63.45
2019-05-19T17:55:28.044Z,57.67
2019-05-19T17:57:56.316Z,62.40
2019-05-19T18:00:34.607Z,58.90
2019-05-19T18:03:00.463Z,66.45
2019-05-19T18:05:26.355Z,62.00
2019-05-19T18:07:52.208Z,64.50
2019-05-19T18:10:18.066Z,65.80
2019-05-19T18:12:43.976Z,59.03
2019-05-19T18:15:09.802Z,64.43
2019-05-19T18:17:35.666Z,63.90
2019-05-19T18:20:03.477Z,62.57
2019-05-19T18:22:29.287Z,63.33
2019-05-19T18:24:55.158Z,71.37
2019-05-19T18:27:21.033Z,59.97
2019-05-19T18:29:46.881Z,67.63
2019-05-19T18:32:12.746Z,63.37
2019-05-19T18:34:38.651Z,64.10
2019-05-19T18:37:04.521Z,63.83
2019-05-19T18:39:30.425Z,63.03
2019-05-19T18:41:56.288Z,57.40
2019-05-19T18:44:22.160Z,57.70
2019-05-19T18:46:48.024Z,64.77
2019-05-19T18:49:13.875Z,60.53
2019-05-19T18:51:39.760Z,66.20
2019-05-19T18:54:05.818Z,68.33
2019-05-19T18:56:31.711Z,63.73
2019-05-19T18:58:57.579Z,66.90
2019-05-19T19:01:23.437Z,60.60
2019-05-19T19:03:49.426Z,64.17
2019-05-19T19:06:15.295Z,60.97
2019-05-19T19:08:41.153Z,67.73
2019-05-19T19:11:07.030Z,70.73
2019-05-19T19:13:32.889Z,68.87
2019-05-19T19:15:58.753Z,69.97
2019-05-19T19:18:24.606Z,68.73
2019-05-19T19:20:50.492Z,69.63
2019-05-19T19:23:16.353Z,69.13
2019-05-19T19:25:42.274Z,73.67
2019-05-19T19:28:08.137Z,68.77
2019-05-19T19:30:34.013Z,69.97
2019-05-19T19:32:59.881Z,63.30
2019-05-19T19:35:25.783Z,66.70
2019-05-19T19:37:51.622Z,79.47
2019-05-19T19:40:26.619Z,71.60
2019-05-19T19:42:52.487Z,74.17
2019-05-19T19:45:18.386Z,72.20
2019-05-19T19:47:44.240Z,76.03
2019-05-19T19:50:10.097Z,73.37
2019-05-19T19:52:35.968Z,69.97
2019-05-19T19:55:03.036Z,78.23
2019-05-19T19:57:28.892Z,76.50
2019-05-19T19:59:54.755Z,76.93
2019-05-19T20:02:20.620Z,78.70
2019-05-19T20:04:46.492Z,70.37
2019-05-19T20:07:12.372Z,72.27
2019-05-19T20:09:38.233Z,69.17
2019-05-19T20:12:04.089Z,73.43
2019-05-19T20:14:29.957Z,74.10
2019-05-19T20:16:55.852Z,73.33
2019-05-19T20:19:21.868Z,69.77
2019-05-19T20:21:47.706Z,65.30
2019-05-19T20:24:13.570Z,64.77
2019-05-19T20:26:39.456Z,58.67
2019-05-19T20:29:05.353Z,64.67
2019-05-19T20:31:31.574Z,62.43
2019-05-19T20:33:57.484Z,66.93
2019-05-19T20:36:23.411Z,72.33
2019-05-19T20:38:49.235Z,66.77
2019-05-19T20:41:15.098Z,59.30
2019-05-19T20:43:40.967Z,63.60
2019-05-19T20:46:06.868Z,60.67
2019-05-19T20:48:33.001Z,50.10
2019-05-19T20:50:58.886Z,54.23
2019-05-19T20:53:24.878Z,49.10
2019-05-19T20:55:50.707Z,49.20
2019-05-19T20:58:16.576Z,49.77
2019-05-19T21:00:50.383Z,50.97
2019-05-19T21:03:10.214Z,51.30
2019-05-19T21:05:36.079Z,57.97
2019-05-19T21:08:01.973Z,65.47
2019-05-19T21:10:27.817Z,63.13
2019-05-19T21:12:53.682Z,61.37
2019-05-19T21:15:19.551Z,67.00
2019-05-19T21:17:45.424Z,65.73
2019-05-19T21:20:11.285Z,65.33
2019-05-19T21:22:37.138Z,67.40
2019-05-19T21:25:05.705Z,62.90
2019-05-19T21:27:31.559Z,71.80
2019-05-19T21:29:57.407Z,65.40
2019-05-19T21:32:23.268Z,63.03
2019-05-19T21:34:49.135Z,60.60
2019-05-19T21:37:15.005Z,62.43
2019-05-19T21:39:40.856Z,58.17
2019-05-19T21:42:06.704Z,60.77
2019-05-19T21:44:32.573Z,59.47
2019-05-19T21:46:58.429Z,58.90
2019-05-19T21:49:24.287Z,57.23
2019-05-19T21:51:50.155Z,61.87
2019-05-19T21:54:16.042Z,52.97
2019-05-19T21:56:41.907Z,60.57
2019-05-19T21:59:07.769Z,54.10
2019-05-19T22:01:33.618Z,55.17
2019-05-19T22:03:59.476Z,54.00
2019-05-19T22:06:27.255Z,54.23
2019-05-19T22:08:53.133Z,55.10
2019-05-19T22:11:18.990Z,52.23
2019-05-19T22:13:44.861Z,56.43
2019-05-19T22:16:13.402Z,56.97
2019-05-19T22:18:38.462Z,57.13
2019-05-19T22:21:04.330Z,59.53
2019-05-19T22:23:30.204Z,52.37
2019-05-19T22:25:56.078Z,57.37
2019-05-19T22:28:22.008Z,56.83
2019-05-19T22:30:47.848Z,51.00
2019-05-19T22:33:13.721Z,53.83
2019-05-19T22:35:39.597Z,53.97
2019-05-19T22:38:05.447Z,59.93
2019-05-19T22:40:31.312Z,50.50
2019-05-19T22:42:57.166Z,59.27
2019-05-19T22:45:23.334Z,52.07
2019-05-19T22:47:49.198Z,56.40
2019-05-19T22:50:15.473Z,51.43
2019-05-19T22:52:41.332Z,45.87
2019-05-19T22:55:08.023Z,50.57
2019-05-19T22:57:33.874Z,49.17
2019-05-19T22:59:59.738Z,47.30
2019-05-19T23:02:25.598Z,57.97
2019-05-19T23:04:51.509Z,50.00
2019-05-19T23:07:17.376Z,53.23
2019-05-19T23:09:43.244Z,49.27
2019-05-19T23:12:09.105Z,46.17
2019-05-19T23:14:34.970Z,49.03
2019-05-19T23:17:00.917Z,47.50
2019-05-19T23:19:26.766Z,52.07
2019-05-19T23:21:52.638Z,47.80
2019-05-19T23:24:18.525Z,42.33
2019-05-19T23:26:44.376Z,43.07
2019-05-19T23:29:10.238Z,42.60
2019-05-19T23:31:36.100Z,45.33
2019-05-19T23:34:01.969Z,48.93
2019-05-19T23:36:27.833Z,50.50
2019-05-19T23:38:53.685Z,50.03
2019-05-19T23:41:19.555Z,46.43
2019-05-19T23:43:45.438Z,52.43
2019-05-19T23:46:11.300Z,52.37
2019-05-19T23:48:37.166Z,50.13
2019-05-19T23:51:03.057Z,50.20
2019-05-19T23:53:28.919Z,52.93
2019-05-19T23:55:54.796Z,51.17
2019-05-19T23:58:20.668Z,49.70
